createdAt,value
2023-03-20T00:00:34.156Z,10.30
2023-03-20T00:03:02.627Z,10.17
2023-03-20T00:05:32.035Z,10.77
2023-03-20T00:08:01.930Z,11.43
2023-03-20T00:10:35.740Z,10.97
2023-03-20T00:13:04.680Z,10.77
2023-03-20T00:15:34.908Z,10.50
2023-03-20T00:18:02.968Z,11.53
2023-03-20T00:20:31.756Z,8.88
2023-03-20T00:23:00.878Z,11.67
2023-03-20T00:25:29.224Z,10.27
2023-03-20T00:27:57.111Z,12.47
2023-03-20T00:30:30.192Z,10.20
2023-03-20T00:32:59.614Z,9.73
2023-03-20T00:35:30.189Z,11.50
2023-03-20T00:37:59.104Z,9.97
2023-03-20T00:40:32.239Z,11.10
2023-03-20T00:43:02.158Z,9.35
2023-03-20T00:45:31.216Z,13.85
2023-03-20T00:47:59.547Z,8.80
2023-03-20T00:50:30.599Z,12.27
2023-03-20T00:52:59.707Z,10.20
2023-03-20T00:55:31.010Z,12.57
2023-03-20T00:58:01.335Z,13.53
2023-03-20T01:00:38.705Z,11.13
2023-03-20T01:03:13.922Z,11.37
2023-03-20T01:05:42.075Z,13.40
2023-03-20T01:08:18.342Z,12.50
2023-03-20T01:10:49.133Z,15.83
2023-03-20T01:13:21.862Z,17.63
2023-03-20T01:15:51.527Z,15.13
2023-03-20T01:18:20.777Z,14.27
2023-03-20T01:20:49.772Z,13.93
2023-03-20T01:23:18.282Z,14.37
2023-03-20T01:25:47.397Z,17.57
2023-03-20T01:28:18.360Z,16.40
2023-03-20T01:30:47.558Z,16.70
2023-03-20T01:33:17.710Z,13.73
2023-03-20T01:35:46.490Z,15.93
2023-03-20T01:38:16.654Z,14.83
2023-03-20T01:40:54.030Z,16.87
2023-03-20T01:43:24.076Z,13.97
2023-03-20T01:46:00.367Z,14.77
2023-03-20T01:48:37.832Z,13.73
2023-03-20T01:51:05.942Z,17.10
2023-03-20T01:53:33.754Z,13.90
2023-03-20T01:56:02.872Z,13.97
2023-03-20T01:58:37.176Z,13.93
2023-03-20T02:01:06.339Z,13.00
2023-03-20T02:03:35.374Z,12.50
2023-03-20T02:06:03.155Z,11.40
2023-03-20T02:08:32.703Z,11.23
2023-03-20T02:11:05.231Z,13.10
2023-03-20T02:13:34.279Z,11.60
2023-03-20T02:16:08.444Z,13.03
2023-03-20T02:18:36.502Z,12.13
2023-03-20T02:21:42.457Z,12.57
2023-03-20T02:24:38.512Z,15.00
2023-03-20T02:27:13.951Z,14.40
2023-03-20T02:30:19.285Z,13.97
2023-03-20T02:33:18.218Z,14.17
2023-03-20T02:36:22.216Z,13.67
2023-03-20T02:39:06.440Z,17.07
2023-03-20T02:41:39.903Z,15.73
2023-03-20T02:44:13.954Z,13.13
2023-03-20T02:46:52.714Z,13.07
2023-03-20T02:49:32.117Z,14.23
2023-03-20T02:52:06.163Z,11.30
2023-03-20T02:54:42.949Z,12.33
2023-03-20T02:57:17.845Z,13.67
2023-03-20T02:59:55.557Z,12.67
2023-03-20T03:02:29.951Z,13.63
2023-03-20T03:05:02.399Z,12.53
2023-03-20T03:07:33.721Z,14.47
2023-03-20T03:10:08.165Z,13.43
2023-03-20T03:12:39.424Z,14.40
2023-03-20T03:15:12.006Z,14.83
2023-03-20T03:17:41.322Z,14.37
2023-03-20T03:20:16.718Z,12.63
2023-03-20T03:22:44.536Z,12.30
2023-03-20T03:25:13.977Z,12.90
2023-03-20T03:27:44.462Z,10.43
2023-03-20T03:30:17.144Z,11.67
2023-03-20T03:32:47.766Z,9.83
2023-03-20T03:35:18.446Z,10.50
2023-03-20T03:37:57.204Z,12.27
2023-03-20T03:40:33.327Z,11.47
2023-03-20T03:43:04.909Z,12.30
2023-03-20T03:45:37.445Z,12.77
2023-03-20T03:48:09.956Z,12.33
2023-03-20T03:50:46.357Z,9.97
2023-03-20T03:53:15.389Z,9.33
2023-03-20T03:55:49.155Z,9.73
2023-03-20T03:58:20.139Z,10.67
2023-03-20T04:00:50.673Z,10.10
2023-03-20T04:03:20.658Z,8.50
2023-03-20T04:05:50.642Z,10.43
2023-03-20T04:08:18.374Z,9.50
2023-03-20T04:10:47.444Z,26.73
2023-03-20T04:13:16.419Z,12.30
2023-03-20T04:15:44.236Z,15.43
2023-03-20T04:18:17.157Z,12.83
2023-03-20T04:20:45.297Z,13.40
2023-03-20T04:23:13.144Z,14.83
2023-03-20T04:25:40.989Z,13.07
2023-03-20T04:28:11.597Z,11.37
2023-03-20T04:30:39.464Z,9.77
2023-03-20T04:33:07.361Z,11.17
2023-03-20T04:35:35.525Z,16.57
2023-03-20T04:38:03.566Z,11.00
2023-03-20T04:40:31.831Z,13.57
2023-03-20T04:42:59.542Z,11.53
2023-03-20T04:45:28.579Z,11.53
2023-03-20T04:47:56.299Z,12.37
2023-03-20T04:50:24.439Z,10.90
2023-03-20T04:52:52.183Z,13.47
2023-03-20T04:55:19.879Z,14.87
2023-03-20T04:57:47.582Z,13.87
2023-03-20T05:00:16.089Z,12.07
2023-03-20T05:02:45.588Z,12.23
2023-03-20T05:05:13.281Z,11.77
2023-03-20T05:07:41.059Z,12.40
2023-03-20T05:10:09.905Z,10.30
2023-03-20T05:12:37.694Z,9.67
2023-03-20T05:15:05.971Z,11.90
2023-03-20T05:17:33.738Z,12.60
2023-03-20T05:20:02.798Z,10.03
2023-03-20T05:22:30.605Z,10.97
2023-03-20T05:24:58.335Z,12.33
2023-03-20T05:27:26.068Z,11.53
2023-03-20T05:29:53.796Z,13.37
2023-03-20T05:32:21.623Z,12.80
2023-03-20T05:34:49.336Z,12.07
2023-03-20T05:37:18.340Z,10.70
2023-03-20T05:39:46.376Z,11.37
2023-03-20T05:42:14.063Z,10.57
2023-03-20T05:44:42.088Z,9.87
2023-03-20T05:47:09.822Z,12.10
2023-03-20T05:49:37.545Z,11.80
2023-03-20T05:52:05.307Z,11.30
2023-03-20T05:54:34.375Z,11.37
2023-03-20T05:57:02.203Z,11.80
2023-03-20T05:59:29.957Z,11.27
2023-03-20T06:01:57.645Z,11.53
2023-03-20T06:04:25.896Z,14.03
2023-03-20T06:06:53.584Z,10.73
2023-03-20T06:09:21.535Z,10.87
2023-03-20T06:11:50.623Z,11.17
2023-03-20T06:14:18.320Z,14.37
2023-03-20T06:16:46.831Z,12.03
2023-03-20T06:19:14.597Z,12.97
2023-03-20T06:21:42.431Z,12.87
2023-03-20T06:24:10.277Z,11.90
2023-03-20T06:26:38.089Z,13.17
2023-03-20T06:29:07.485Z,13.60
2023-03-20T06:31:35.303Z,15.43
2023-03-20T06:34:03.573Z,12.60
2023-03-20T06:36:31.421Z,11.40
2023-03-20T06:38:59.252Z,11.33
2023-03-20T06:41:34.124Z,9.67
2023-03-20T06:44:02.281Z,14.63
2023-03-20T06:46:31.555Z,12.40
2023-03-20T06:48:59.417Z,14.73
2023-03-20T06:51:27.101Z,17.27
2023-03-20T06:53:54.820Z,14.53
2023-03-20T06:56:22.545Z,16.17
2023-03-20T06:58:50.398Z,16.37
2023-03-20T07:01:20.313Z,17.23
2023-03-20T07:03:49.643Z,20.30
2023-03-20T07:06:18.391Z,19.10
2023-03-20T07:08:46.421Z,20.57
2023-03-20T07:11:14.382Z,22.57
2023-03-20T07:13:42.117Z,24.90
2023-03-20T07:16:10.648Z,24.90
2023-03-20T07:18:38.683Z,26.17
2023-03-20T07:21:08.928Z,23.87
2023-03-20T07:23:37.171Z,26.63
2023-03-20T07:26:05.515Z,27.63
2023-03-20T07:28:33.305Z,29.37
2023-03-20T07:31:01.142Z,31.20
2023-03-20T07:33:28.906Z,27.37
2023-03-20T07:35:57.062Z,33.20
2023-03-20T07:38:26.233Z,31.50
2023-03-20T07:40:55.356Z,30.43
2023-03-20T07:43:23.376Z,34.13
2023-03-20T07:45:51.520Z,34.93
2023-03-20T07:48:19.291Z,36.17
2023-03-20T07:50:47.105Z,34.27
2023-03-20T07:53:15.101Z,33.33
2023-03-20T07:55:45.188Z,37.87
2023-03-20T07:58:12.971Z,33.53
2023-03-20T08:00:41.275Z,32.73
2023-03-20T08:03:09.274Z,35.53
2023-03-20T08:05:37.565Z,30.97
2023-03-20T08:08:05.719Z,36.43
2023-03-20T08:10:33.759Z,34.17
2023-03-20T08:13:03.039Z,38.43
2023-03-20T08:15:30.951Z,35.63
2023-03-20T08:17:58.831Z,39.40
2023-03-20T08:20:27.169Z,35.57
2023-03-20T08:22:55.006Z,34.57
2023-03-20T08:25:22.895Z,38.60
2023-03-20T08:27:50.763Z,35.33
2023-03-20T08:30:19.988Z,35.23
2023-03-20T08:32:47.760Z,31.93
2023-03-20T08:35:31.743Z,33.47
2023-03-20T08:38:00.008Z,32.83
2023-03-20T08:40:27.879Z,30.60
2023-03-20T08:42:55.638Z,31.90
2023-03-20T08:45:26.147Z,35.73
2023-03-20T08:47:54.906Z,38.80
2023-03-20T08:50:22.631Z,34.03
2023-03-20T08:52:50.586Z,36.67
2023-03-20T08:55:19.698Z,37.07
2023-03-20T08:57:47.730Z,40.17
2023-03-20T09:00:17.040Z,37.53
2023-03-20T09:02:46.104Z,43.20
2023-03-20T09:05:13.843Z,36.10
2023-03-20T09:07:41.603Z,40.33
2023-03-20T09:10:11.210Z,30.00
2023-03-20T09:12:39.465Z,30.40
2023-03-20T09:15:08.342Z,31.50
2023-03-20T09:17:36.045Z,28.42
2023-03-20T09:20:06.355Z,26.75
2023-03-20T09:22:34.471Z,26.33
2023-03-20T09:25:02.184Z,28.55
2023-03-20T09:27:29.923Z,24.98
2023-03-20T09:29:57.674Z,24.17
2023-03-20T09:32:25.711Z,24.50
2023-03-20T09:34:53.606Z,27.92
2023-03-20T09:37:22.642Z,31.35
2023-03-20T09:39:50.370Z,24.15
2023-03-20T09:42:31.688Z,22.85
2023-03-20T09:45:06.924Z,27.50
2023-03-20T09:47:41.640Z,27.05
2023-03-20T09:50:22.423Z,22.10
2023-03-20T09:52:57.433Z,22.70
2023-03-20T09:55:31.062Z,25.83
2023-03-20T09:58:02.558Z,24.30
2023-03-20T10:00:33.641Z,21.88
2023-03-20T10:03:02.765Z,20.10
2023-03-20T10:05:33.656Z,20.02
2023-03-20T10:08:04.682Z,19.13
2023-03-20T10:10:40.602Z,22.05
2023-03-20T10:13:24.346Z,17.58
2023-03-20T10:15:57.016Z,20.87
2023-03-20T10:18:27.394Z,20.67
2023-03-20T10:20:58.841Z,16.97
2023-03-20T10:23:37.065Z,18.33
2023-03-20T10:26:11.215Z,18.02
2023-03-20T10:28:44.511Z,19.13
2023-03-20T10:31:25.967Z,17.57
2023-03-20T10:34:04.072Z,13.32
2023-03-20T10:36:52.052Z,18.60
2023-03-20T10:39:40.197Z,14.73
2023-03-20T10:42:15.593Z,17.80
2023-03-20T10:44:47.668Z,19.33
2023-03-20T10:47:19.659Z,16.58
2023-03-20T10:49:51.754Z,17.33
2023-03-20T10:52:23.679Z,16.23
2023-03-20T10:54:57.395Z,17.77
2023-03-20T10:57:27.124Z,18.20
2023-03-20T10:59:57.792Z,16.67
2023-03-20T11:02:29.956Z,19.13
2023-03-20T11:04:57.785Z,16.83
2023-03-20T11:07:27.406Z,20.30
2023-03-20T11:10:16.496Z,16.35
2023-03-20T11:12:45.760Z,15.38
2023-03-20T11:15:22.670Z,25.80
2023-03-20T11:17:58.317Z,12.63
2023-03-20T11:20:26.993Z,12.48
2023-03-20T11:23:00.536Z,11.75
2023-03-20T11:25:33.977Z,19.25
2023-03-20T11:28:20.099Z,14.48
2023-03-20T11:31:03.944Z,14.15
2023-03-20T11:33:34.663Z,11.93
2023-03-20T11:36:02.486Z,16.92
2023-03-20T11:38:32.512Z,16.25
2023-03-20T11:41:06.364Z,13.30
2023-03-20T11:43:39.644Z,12.77
2023-03-20T11:46:13.723Z,10.85
2023-03-20T11:48:44.365Z,10.15
2023-03-20T11:51:16.243Z,13.63
2023-03-20T11:54:02.661Z,12.55
2023-03-20T11:56:33.692Z,13.60
2023-03-20T11:59:05.164Z,13.35
2023-03-20T12:01:44.610Z,12.02
2023-03-20T12:04:16.676Z,13.27
2023-03-20T12:06:49.071Z,15.55
2023-03-20T12:09:31.050Z,15.05
2023-03-20T12:12:03.558Z,12.63
2023-03-20T12:14:43.333Z,14.45
2023-03-20T12:17:29.738Z,11.63
2023-03-20T12:20:00.567Z,13.65
2023-03-20T12:22:34.565Z,12.43
2023-03-20T12:25:10.286Z,14.30
2023-03-20T12:27:47.217Z,12.15
2023-03-20T12:30:18.881Z,11.65
2023-03-20T12:32:54.860Z,11.45
2023-03-20T12:35:28.719Z,14.35
2023-03-20T12:37:56.621Z,11.85
2023-03-20T12:40:43.587Z,14.10
2023-03-20T12:43:16.716Z,15.15
2023-03-20T12:45:51.341Z,13.55
2023-03-20T12:48:37.974Z,12.73
2023-03-20T12:51:13.679Z,12.13
2023-03-20T12:53:51.039Z,13.35
2023-03-20T12:56:30.012Z,14.07
2023-03-20T12:59:05.451Z,13.90
2023-03-20T13:01:36.974Z,15.73
2023-03-20T13:04:37.497Z,14.30
2023-03-20T13:07:12.695Z,15.43
2023-03-20T13:09:57.271Z,16.00
2023-03-20T13:12:36.781Z,13.75
2023-03-20T13:15:17.052Z,15.15
2023-03-20T13:17:51.312Z,14.38
2023-03-20T13:20:31.981Z,15.70
2023-03-20T13:23:13.966Z,15.07
2023-03-20T13:25:53.733Z,12.88
2023-03-20T13:28:32.788Z,14.93
2023-03-20T13:31:07.687Z,16.02
2023-03-20T13:33:45.782Z,17.90
2023-03-20T13:36:25.438Z,20.05
2023-03-20T13:39:00.507Z,16.67
2023-03-20T13:41:29.062Z,15.98
2023-03-20T13:44:01.192Z,17.35
2023-03-20T13:46:37.202Z,14.52
2023-03-20T13:49:14.025Z,15.43
2023-03-20T13:51:48.451Z,15.85
2023-03-20T13:54:27.720Z,16.63
2023-03-20T13:57:00.819Z,16.30
2023-03-20T13:59:45.519Z,17.27
2023-03-20T14:02:27.787Z,18.40
2023-03-20T14:05:03.866Z,16.35
2023-03-20T14:07:34.342Z,16.55
2023-03-20T14:10:31.899Z,17.67
2023-03-20T14:13:02.765Z,16.42
2023-03-20T14:15:34.891Z,20.02
2023-03-20T14:18:08.317Z,22.10
2023-03-20T14:20:39.560Z,18.83
2023-03-20T14:23:08.382Z,19.15
2023-03-20T14:25:41.258Z,18.88
2023-03-20T14:28:25.306Z,17.33
2023-03-20T14:31:14.374Z,17.58
2023-03-20T14:33:54.041Z,21.55
2023-03-20T14:36:28.038Z,17.55
2023-03-20T14:39:06.173Z,19.17
2023-03-20T14:41:41.909Z,18.80
2023-03-20T14:44:25.764Z,20.80
2023-03-20T14:47:02.228Z,18.13
2023-03-20T14:49:51.883Z,21.92
2023-03-20T14:52:35.998Z,20.45
2023-03-20T14:55:28.805Z,17.00
2023-03-20T14:57:57.525Z,20.45
2023-03-20T15:00:27.645Z,20.35
2023-03-20T15:03:05.459Z,19.58
2023-03-20T15:05:37.467Z,21.83
2023-03-20T15:08:09.442Z,23.40
2023-03-20T15:10:47.373Z,25.20
2023-03-20T15:13:16.872Z,22.95
2023-03-20T15:15:54.940Z,20.08
2023-03-20T15:18:24.478Z,27.02
2023-03-20T15:20:54.982Z,23.02
2023-03-20T15:23:22.743Z,27.60
2023-03-20T15:25:51.720Z,26.00
2023-03-20T15:28:23.651Z,25.02
2023-03-20T15:30:54.831Z,27.33
2023-03-20T15:33:27.528Z,25.45
2023-03-20T15:35:57.403Z,28.95
2023-03-20T15:38:31.180Z,30.08
2023-03-20T15:40:58.994Z,30.50
2023-03-20T15:43:28.857Z,33.03
2023-03-20T15:46:16.278Z,29.90
2023-03-20T15:48:48.422Z,32.30
2023-03-20T15:51:19.081Z,32.33
2023-03-20T15:53:49.552Z,31.10
2023-03-20T15:56:20.066Z,31.30
2023-03-20T15:58:50.466Z,32.60
2023-03-20T16:01:21.417Z,32.87
2023-03-20T16:03:50.026Z,36.30
2023-03-20T16:06:21.878Z,32.60
2023-03-20T16:08:59.181Z,35.13
2023-03-20T16:11:35.968Z,35.67
2023-03-20T16:14:04.551Z,33.10
2023-03-20T16:16:37.249Z,36.70
2023-03-20T16:19:06.445Z,37.33
2023-03-20T16:21:39.805Z,33.47
2023-03-20T16:24:11.326Z,34.60
2023-03-20T16:26:43.486Z,35.23
2023-03-20T16:29:14.232Z,35.90
2023-03-20T16:31:48.027Z,35.53
2023-03-20T16:34:19.780Z,34.60
2023-03-20T16:36:54.850Z,35.73
2023-03-20T16:39:27.100Z,33.83
2023-03-20T16:42:16.977Z,34.97
2023-03-20T16:44:45.027Z,39.63
2023-03-20T16:47:20.381Z,34.77
2023-03-20T16:50:16.781Z,34.60
2023-03-20T16:52:52.761Z,36.27
2023-03-20T16:55:27.342Z,40.17
2023-03-20T16:57:59.052Z,36.77
2023-03-20T17:00:29.969Z,38.50
2023-03-20T17:03:08.307Z,38.17
2023-03-20T17:05:46.988Z,38.33
2023-03-20T17:08:18.161Z,46.10
2023-03-20T17:10:50.843Z,42.87
2023-03-20T17:13:18.844Z,35.00
2023-03-20T17:15:46.778Z,35.93
2023-03-20T17:18:15.432Z,38.97
2023-03-20T17:20:43.477Z,36.77
2023-03-20T17:23:20.175Z,38.27
2023-03-20T17:25:49.109Z,35.33
2023-03-20T17:28:22.843Z,42.60
2023-03-20T17:30:52.412Z,39.10
2023-03-20T17:33:21.910Z,36.87
2023-03-20T17:35:50.180Z,40.50
2023-03-20T17:38:22.161Z,38.10
2023-03-20T17:40:50.871Z,38.80
2023-03-20T17:43:20.010Z,37.37
2023-03-20T17:45:48.514Z,34.93
2023-03-20T17:48:20.502Z,41.67
2023-03-20T17:50:50.865Z,40.27
2023-03-20T17:53:23.963Z,40.00
2023-03-20T17:55:51.904Z,38.87
2023-03-20T17:58:22.433Z,37.73
2023-03-20T18:00:50.936Z,37.17
2023-03-20T18:03:19.314Z,37.40
2023-03-20T18:05:48.727Z,38.33
2023-03-20T18:08:19.904Z,35.13
2023-03-20T18:10:50.495Z,36.73
2023-03-20T18:13:21.032Z,36.03
2023-03-20T18:15:49.645Z,36.47
2023-03-20T18:18:17.488Z,41.60
2023-03-20T18:20:46.709Z,34.90
2023-03-20T18:23:15.222Z,37.67
2023-03-20T18:25:43.353Z,37.53
2023-03-20T18:28:20.604Z,34.57
2023-03-20T18:30:48.776Z,32.90
2023-03-20T18:33:17.701Z,37.63
2023-03-20T18:35:45.598Z,40.00
2023-03-20T18:38:14.483Z,38.97
2023-03-20T18:40:43.142Z,35.93
2023-03-20T18:43:11.616Z,39.33
2023-03-20T18:45:41.205Z,35.27
2023-03-20T18:48:13.301Z,39.57
2023-03-20T18:50:43.176Z,33.50
2023-03-20T18:53:11.784Z,33.80
2023-03-20T18:55:39.497Z,34.07
2023-03-20T18:58:09.029Z,38.17
2023-03-20T19:00:40.111Z,33.77
2023-03-20T19:03:11.967Z,33.43
2023-03-20T19:05:40.241Z,34.27
2023-03-20T19:08:08.170Z,36.50
2023-03-20T19:10:38.828Z,38.77
2023-03-20T19:13:08.314Z,35.17
2023-03-20T19:15:38.784Z,36.10
2023-03-20T19:18:09.437Z,37.43
2023-03-20T19:20:39.669Z,43.50
2023-03-20T19:23:09.074Z,36.17
2023-03-20T19:25:38.111Z,35.37
2023-03-20T19:28:07.753Z,36.33
2023-03-20T19:30:38.323Z,37.23
2023-03-20T19:33:07.711Z,37.33
2023-03-20T19:36:01.768Z,41.20
2023-03-20T19:38:25.340Z,37.90
2023-03-20T19:40:53.781Z,31.90
2023-03-20T19:43:22.401Z,34.40
2023-03-20T19:45:54.976Z,33.03
2023-03-20T19:48:27.028Z,32.63
2023-03-20T19:50:57.608Z,33.50
2023-03-20T19:53:29.323Z,32.17
2023-03-20T19:55:58.011Z,39.30
2023-03-20T19:58:25.784Z,38.60
2023-03-20T20:00:57.628Z,39.23
2023-03-20T20:03:40.678Z,35.10
2023-03-20T20:06:10.010Z,38.07
2023-03-20T20:08:49.061Z,35.97
2023-03-20T20:11:17.580Z,33.13
2023-03-20T20:14:05.289Z,36.57
2023-03-20T20:16:34.117Z,35.47
2023-03-20T20:19:02.413Z,40.33
2023-03-20T20:22:17.289Z,40.53
2023-03-20T20:24:20.080Z,45.10
2023-03-20T20:26:54.944Z,41.73
2023-03-20T20:29:28.149Z,37.33
2023-03-20T20:31:56.037Z,37.73
2023-03-20T20:40:00.656Z,32.73
2023-03-20T20:42:28.391Z,32.57
2023-03-20T20:44:56.125Z,30.70
2023-03-20T20:47:23.982Z,29.73
2023-03-20T20:49:51.849Z,31.87
2023-03-20T20:52:20.923Z,32.73
2023-03-20T20:54:48.662Z,30.07
2023-03-20T20:57:16.502Z,30.00
2023-03-20T20:59:44.377Z,27.83
2023-03-20T21:02:13.011Z,27.43
2023-03-20T21:04:42.096Z,30.80
2023-03-20T21:07:12.147Z,29.07
2023-03-20T21:09:42.155Z,31.47
2023-03-20T21:12:19.620Z,29.30
2023-03-20T21:14:58.869Z,24.67
2023-03-20T21:17:26.911Z,28.27
2023-03-20T21:19:54.621Z,23.33
2023-03-20T21:22:22.625Z,25.37
2023-03-20T21:25:00.707Z,23.23
2023-03-20T21:27:35.132Z,21.67
2023-03-20T21:30:03.688Z,23.87
2023-03-20T21:32:36.550Z,24.40
2023-03-20T21:35:07.535Z,23.77
2023-03-20T21:40:24.905Z,23.70
2023-03-20T21:42:52.961Z,23.53
2023-03-20T21:51:53.215Z,22.93
2023-03-20T22:02:22.133Z,21.30
2023-03-20T22:05:34.869Z,22.50
2023-03-20T22:14:12.601Z,23.37
2023-03-20T22:19:45.888Z,23.23
2023-03-20T22:22:23.012Z,22.53
2023-03-20T22:31:03.262Z,19.43
2023-03-20T22:33:54.823Z,22.23
2023-03-20T22:39:11.811Z,24.20
2023-03-20T22:42:12.541Z,25.80
2023-03-20T22:47:00.600Z,22.47
2023-03-20T22:49:28.343Z,21.67
2023-03-20T22:52:19.675Z,21.57
2023-03-20T22:54:43.935Z,23.67
2023-03-20T22:57:11.674Z,20.97
2023-03-20T22:59:39.613Z,21.10
2023-03-20T23:02:09.192Z,22.10
2023-03-20T23:04:36.983Z,24.47
2023-03-20T23:07:05.788Z,22.87
2023-03-20T23:09:33.504Z,21.77
2023-03-20T23:12:01.355Z,22.07
2023-03-20T23:14:36.281Z,20.23
2023-03-20T23:17:12.139Z,21.43
2023-03-20T23:19:47.787Z,21.97
2023-03-20T23:22:18.093Z,21.57
2023-03-20T23:24:45.905Z,21.63
2023-03-20T23:27:13.660Z,20.90
2023-03-20T23:29:41.558Z,23.40
2023-03-20T23:32:09.370Z,22.53
2023-03-20T23:34:39.020Z,24.30
2023-03-20T23:37:06.895Z,20.97
2023-03-20T23:39:34.636Z,23.33
2023-03-20T23:42:14.457Z,21.40
2023-03-20T23:44:56.345Z,21.07
2023-03-20T23:47:30.033Z,22.77
2023-03-20T23:50:06.416Z,21.90
2023-03-20T23:52:38.414Z,23.10
2023-03-20T23:55:09.115Z,23.00
2023-03-20T23:57:36.819Z,23.80
